La Grange Highlands, Illinois
Current Conditions -  °F | °C
As of 4:53 PM on Wednesday 22 Oct 2014 (Local Time) from KMDW Reporting Station
Clear Clear  
Wind Chill: 52°   Ceiling: Unl
Heat Index: 52°   Visibility: 10mi
Dew Point: 36°   Wind: 7mph
Humidity: 54%   Direction: 90°E
Pressure: 30.29"   Gusts: NA
Location:  41.7814°N, 87.8717°W
Report Text: KMDW 222153Z 09006KT 10SM CLR 11/02 A3029 RMK AO2 SLP259 T01110022
Loading
Personal Weather Stations






























Interactive Weather Map
Tropical Storm Tracking
New forecast layout! Learn more

10-Day Weather Forecast

Advertisements
Track Severe Weather on mobile